createdAt,value
2016-11-18T05:52:48.319Z,98294
2016-11-18T05:54:49.726Z,98292
2016-11-18T05:56:49.718Z,98290
2016-11-18T05:58:49.756Z,98287
2016-11-18T06:00:48.505Z,98290
2016-11-18T06:02:48.545Z,98308
2016-11-18T06:04:48.656Z,98317
2016-11-18T06:06:48.635Z,98334
2016-11-18T06:08:48.720Z,98337
2016-11-18T06:12:15.361Z,98333
2016-11-18T06:14:15.368Z,98335
2016-11-18T06:16:15.366Z,98335
2016-11-18T06:18:15.469Z,98330
2016-11-18T06:20:42.815Z,98335
2016-11-18T06:22:41.448Z,98331
2016-11-18T06:24:41.535Z,98337
2016-11-18T06:26:41.643Z,98324
2016-11-18T06:28:43.051Z,98332
2016-11-18T06:30:43.095Z,98322
2016-11-18T06:32:42.487Z,98327
2016-11-18T06:34:41.807Z,98328
2016-11-18T06:36:41.801Z,98324
2016-11-18T06:38:43.219Z,98314
2016-11-18T06:40:43.263Z,98320
2016-11-18T06:42:42.029Z,98317
2016-11-18T06:44:42.861Z,98302
2016-11-18T06:46:43.460Z,98307
2016-11-18T06:48:42.127Z,98330
2016-11-18T06:50:43.469Z,98337
2016-11-18T06:52:43.544Z,98336
2016-11-18T06:54:42.260Z,98346
2016-11-18T06:56:42.325Z,98335
2016-11-18T06:58:42.341Z,98335
2016-11-18T07:00:42.490Z,98315
2016-11-18T07:02:43.774Z,98296
2016-11-18T07:04:42.511Z,98295
2016-11-18T07:06:43.953Z,98294
2016-11-18T07:08:43.929Z,98301
2016-11-18T07:10:42.701Z,98297
2016-11-18T07:12:42.818Z,98296
2016-11-18T07:14:42.878Z,98286
2016-11-18T07:16:44.138Z,98282
2016-11-18T07:18:44.236Z,98279
2016-11-18T07:20:44.308Z,98272
2016-11-18T07:22:44.262Z,98278
2016-11-18T07:24:44.299Z,98288
2016-11-18T07:26:44.321Z,98300
2016-11-18T07:28:43.618Z,98303
2016-11-18T07:30:44.480Z,98306
2016-11-18T07:32:44.466Z,98305
2016-11-18T07:34:44.559Z,98312
2016-11-18T07:36:43.220Z,98329
2016-11-18T07:38:44.706Z,98323
2016-11-18T07:40:43.284Z,98321
2016-11-18T07:42:44.028Z,98313
2016-11-18T07:44:44.701Z,98305
2016-11-18T07:46:45.419Z,98310
2016-11-18T07:48:44.867Z,98338
2016-11-18T07:50:43.505Z,98350
2016-11-18T07:52:44.273Z,98351
2016-11-18T07:54:45.007Z,98368
2016-11-18T07:56:45.040Z,98376
2016-11-18T07:58:44.552Z,98375
2016-11-18T08:00:43.806Z,98393
2016-11-18T08:02:43.812Z,98390
2016-11-18T08:04:45.080Z,98377
2016-11-18T08:06:43.967Z,98362
2016-11-18T08:08:45.344Z,98367
2016-11-18T08:10:46.737Z,98359
2016-11-18T08:12:44.089Z,98348
2016-11-18T08:14:45.561Z,98355
2016-11-18T08:16:44.281Z,98387
2016-11-18T08:18:44.370Z,98387
2016-11-18T08:20:45.661Z,98379
2016-11-18T08:22:44.393Z,98381
2016-11-18T08:24:44.551Z,98381
2016-11-18T08:26:45.891Z,98374
2016-11-18T08:28:45.869Z,98382
2016-11-18T08:30:44.577Z,98382
2016-11-18T08:32:46.003Z,98382
2016-11-18T08:34:44.732Z,98373
2016-11-18T08:36:46.110Z,98373
2016-11-18T08:38:44.815Z,98371
2016-11-18T08:40:46.270Z,98365
2016-11-18T08:42:44.977Z,98363
2016-11-18T08:44:46.320Z,98349
2016-11-18T08:46:46.356Z,98348
2016-11-18T08:48:46.876Z,98359
2016-11-18T08:50:46.437Z,98369
2016-11-18T08:52:45.133Z,98375
2016-11-18T08:54:45.271Z,98377
2016-11-18T08:56:45.784Z,98383
2016-11-18T08:58:45.329Z,98385
2016-11-18T09:00:46.707Z,98408
2016-11-18T09:02:45.466Z,98390
2016-11-18T09:04:45.410Z,98392
2016-11-18T09:06:48.164Z,98403
2016-11-18T09:08:46.880Z,98411
2016-11-18T09:10:45.574Z,98418
2016-11-18T09:12:45.717Z,98410
2016-11-18T09:14:48.684Z,98407
2016-11-18T09:16:47.530Z,98405
2016-11-18T09:18:45.714Z,98420
2016-11-18T09:20:45.852Z,98417
2016-11-18T09:22:46.562Z,98409
2016-11-18T09:24:45.961Z,98415
2016-11-18T09:26:46.025Z,98403
2016-11-18T09:28:46.134Z,98398
2016-11-18T09:30:47.437Z,98402
2016-11-18T09:32:49.223Z,98415
2016-11-18T09:34:48.077Z,98425
2016-11-18T09:36:48.272Z,98462
2016-11-18T09:38:47.692Z,98527
2016-11-18T09:40:46.320Z,98525
2016-11-18T09:43:27.670Z,98503
2016-11-18T09:45:26.375Z,98515
2016-11-18T09:47:26.411Z,98520
2016-11-18T09:49:27.826Z,98535
2016-11-18T09:51:27.833Z,98534
2016-11-18T09:53:26.538Z,98530
2016-11-18T09:55:26.635Z,98523
2016-11-18T09:57:28.044Z,98537
2016-11-18T09:59:28.072Z,98527
2016-11-18T10:01:26.724Z,98536
2016-11-18T10:03:26.673Z,98530
2016-11-18T10:05:28.174Z,98527
2016-11-18T10:07:26.908Z,98530
2016-11-18T10:09:26.971Z,98526
2016-11-18T10:11:26.996Z,98530
2016-11-18T10:13:28.404Z,98524
2016-11-18T10:15:27.067Z,98524
2016-11-18T10:17:28.786Z,98530
2016-11-18T10:19:28.505Z,98528
2016-11-18T10:21:27.165Z,98529
2016-11-18T10:23:29.483Z,98522
2016-11-18T10:25:27.371Z,98517
2016-11-18T10:27:28.702Z,98517
2016-11-18T10:29:28.834Z,98510
2016-11-18T10:31:29.622Z,98514
2016-11-18T10:33:27.604Z,98499
2016-11-18T10:35:28.961Z,98506
2016-11-18T10:37:29.020Z,98504
2016-11-18T10:39:30.296Z,98507
2016-11-18T10:41:27.818Z,98504
2016-11-18T10:43:29.230Z,98503
2016-11-18T10:45:27.927Z,98498
2016-11-18T10:47:29.293Z,98505
2016-11-18T10:49:29.349Z,98507
2016-11-18T10:51:28.048Z,98512
2016-11-18T10:53:29.463Z,98514
2016-11-18T10:55:30.214Z,98516
2016-11-18T10:57:28.248Z,98514
2016-11-18T10:59:28.306Z,98515
2016-11-18T11:01:28.441Z,98523
2016-11-18T11:03:29.723Z,98544
2016-11-18T11:05:28.448Z,98554
2016-11-18T11:07:28.482Z,98549
2016-11-18T11:09:30.439Z,98556
2016-11-18T11:11:30.552Z,98557
2016-11-18T11:13:31.014Z,98554
2016-11-18T11:15:30.127Z,98545
2016-11-18T11:17:30.197Z,98542
2016-11-18T11:19:28.971Z,98541
2016-11-18T11:21:30.857Z,98546
2016-11-18T11:23:30.452Z,98540
2016-11-18T11:25:30.466Z,98546
2016-11-18T11:27:30.524Z,98551
2016-11-18T11:29:29.727Z,98544
2016-11-18T11:31:29.231Z,98564
2016-11-18T11:33:29.241Z,98575
2016-11-18T11:35:29.301Z,98565
2016-11-18T11:37:30.733Z,98565
2016-11-18T11:39:29.984Z,98567
2016-11-18T11:41:30.802Z,98569
2016-11-18T11:43:29.411Z,98578
2016-11-18T11:45:29.602Z,98573
2016-11-18T11:47:30.254Z,98570
2016-11-18T11:49:30.954Z,98562
2016-11-18T11:51:29.693Z,98568
2016-11-18T11:53:29.772Z,98572
2016-11-18T11:55:31.183Z,98576
2016-11-18T11:57:29.881Z,98589
2016-11-18T11:59:31.257Z,98580
2016-11-18T12:01:29.941Z,98586
2016-11-18T12:03:31.402Z,98586
2016-11-18T12:05:31.450Z,98587
2016-11-18T12:07:30.215Z,98587
2016-11-18T12:09:30.196Z,98587
2016-11-18T12:11:30.822Z,98600
2016-11-18T12:13:31.675Z,98606
2016-11-18T12:15:32.463Z,98610
2016-11-18T12:17:30.438Z,98610
2016-11-18T12:19:31.910Z,98596
2016-11-18T12:21:31.849Z,98592
2016-11-18T12:23:30.647Z,98587
2016-11-18T12:25:30.786Z,98595
2016-11-18T12:27:32.102Z,98587
2016-11-18T12:29:32.096Z,98580
2016-11-18T12:31:30.786Z,98579
2016-11-18T12:33:30.897Z,98584
2016-11-18T12:35:31.612Z,98577
2016-11-18T12:37:31.450Z,98585
2016-11-18T12:39:32.317Z,98581
2016-11-18T12:41:33.065Z,98590
2016-11-18T12:43:32.414Z,98592
2016-11-18T12:45:32.469Z,98592
2016-11-18T12:47:31.095Z,98591
2016-11-18T12:49:31.159Z,98583
2016-11-18T12:51:32.530Z,98599
2016-11-18T12:53:32.614Z,98600
2016-11-18T12:55:31.399Z,98596
2016-11-18T12:57:33.855Z,98599
2016-11-18T12:59:31.422Z,98588
2016-11-18T13:01:32.817Z,98589
2016-11-18T13:03:32.249Z,98595
2016-11-18T13:05:32.918Z,98590
2016-11-18T13:07:31.648Z,98621
2016-11-18T13:09:33.069Z,98605
2016-11-18T13:11:33.020Z,98610
2016-11-18T13:13:34.033Z,98608
2016-11-18T13:15:31.828Z,98607
2016-11-18T13:17:33.276Z,98598
2016-11-18T13:19:33.852Z,98608
2016-11-18T13:21:32.869Z,98605
2016-11-18T13:23:33.436Z,98604
2016-11-18T13:25:33.512Z,98603
2016-11-18T13:27:32.328Z,98604
2016-11-18T13:29:34.203Z,98595
2016-11-18T13:31:33.706Z,98608
2016-11-18T13:33:34.377Z,98604
2016-11-18T13:35:33.767Z,98605
2016-11-18T13:37:32.527Z,98600
2016-11-18T13:39:32.510Z,98601
2016-11-18T13:41:33.190Z,98606
2016-11-18T13:43:34.391Z,98619
2016-11-18T13:45:33.890Z,98606
2016-11-18T13:47:33.342Z,98614
2016-11-18T13:49:32.810Z,98600
2016-11-18T13:51:36.025Z,98613
2016-11-18T13:53:34.328Z,98627
2016-11-18T13:55:34.386Z,98639
2016-11-18T13:57:33.049Z,98633
2016-11-18T13:59:34.442Z,98653
2016-11-18T14:01:35.047Z,98646
2016-11-18T14:03:34.625Z,98646
2016-11-18T14:05:34.602Z,98650
2016-11-18T14:07:33.325Z,98653
2016-11-18T14:09:33.336Z,98653
2016-11-18T14:11:33.341Z,98653
2016-11-18T14:13:34.815Z,98661
2016-11-18T14:15:35.376Z,98665
2016-11-18T14:17:34.182Z,98667
2016-11-18T14:19:34.934Z,98660
2016-11-18T14:21:34.965Z,98661
2016-11-18T14:23:34.995Z,98667
2016-11-18T14:25:34.254Z,98667
2016-11-18T14:27:36.017Z,98668
2016-11-18T14:29:35.032Z,98668
2016-11-18T14:31:33.834Z,98683
2016-11-18T14:33:33.820Z,98671
2016-11-18T14:35:35.266Z,98678
2016-11-18T14:37:34.008Z,98680
2016-11-18T14:39:36.111Z,98683
2016-11-18T14:41:35.370Z,98685
2016-11-18T14:43:35.389Z,98688
2016-11-18T14:45:36.147Z,98701
2016-11-18T14:47:36.774Z,98699
2016-11-18T14:49:35.527Z,98699
2016-11-18T14:51:35.592Z,98691
2016-11-18T14:53:34.286Z,98699
2016-11-18T14:55:34.402Z,98708
2016-11-18T14:57:34.518Z,98706
2016-11-18T14:59:34.555Z,98701
2016-11-18T15:01:36.463Z,98710
2016-11-18T15:03:34.695Z,98710
2016-11-18T15:05:35.994Z,98701
2016-11-18T15:07:35.375Z,98697
2016-11-18T15:09:34.762Z,98709
2016-11-18T15:11:34.832Z,98707
2016-11-18T15:13:36.126Z,98711
2016-11-18T15:15:34.949Z,98716
2016-11-18T15:17:35.569Z,98712
2016-11-18T15:19:36.386Z,98718
2016-11-18T15:21:36.326Z,98711
2016-11-18T15:23:36.387Z,98710
2016-11-18T15:25:35.078Z,98710
2016-11-18T15:27:37.507Z,98701
2016-11-18T15:29:35.168Z,98710
2016-11-18T15:31:36.647Z,98714
2016-11-18T15:33:35.311Z,98707
2016-11-18T15:35:37.408Z,98711
2016-11-18T15:37:36.832Z,98712
2016-11-18T15:39:36.821Z,98722
2016-11-18T15:41:35.443Z,98718
2016-11-18T15:43:36.892Z,98724
2016-11-18T15:45:36.951Z,98719
2016-11-18T15:47:36.908Z,98738
2016-11-18T15:49:35.772Z,98741
2016-11-18T15:51:37.821Z,98738
2016-11-18T15:53:37.235Z,98726
2016-11-18T15:55:37.315Z,98723
2016-11-18T15:57:37.352Z,98737
2016-11-18T15:59:36.083Z,98740
2016-11-18T16:01:37.485Z,98742
2016-11-18T16:03:36.228Z,98742
2016-11-18T16:05:37.599Z,98735
2016-11-18T16:07:37.656Z,98736
2016-11-18T16:09:37.651Z,98746
2016-11-18T16:11:36.395Z,98731
2016-11-18T16:13:37.878Z,98733
2016-11-18T16:15:38.543Z,98734
2016-11-18T16:17:37.652Z,98734
2016-11-18T16:19:36.670Z,98732
2016-11-18T16:21:38.552Z,98739
2016-11-18T16:23:36.667Z,98745
2016-11-18T16:25:36.869Z,98746
2016-11-18T16:27:36.888Z,98743
2016-11-18T16:29:36.849Z,98748
2016-11-18T16:31:38.303Z,98758
2016-11-18T16:33:37.567Z,98764
2016-11-18T16:35:36.965Z,98772
2016-11-18T16:37:38.344Z,98779
2016-11-18T16:39:36.966Z,98782
2016-11-18T16:41:38.346Z,98788
2016-11-18T16:43:37.159Z,98774
2016-11-18T16:45:38.492Z,98775
2016-11-18T16:47:38.476Z,98785
2016-11-18T16:49:38.617Z,98781
2016-11-18T16:51:37.295Z,98785
2016-11-18T16:53:37.329Z,98785
2016-11-18T16:55:38.789Z,98787
2016-11-18T16:57:38.831Z,98779
2016-11-18T16:59:38.817Z,98778
2016-11-18T17:01:37.557Z,98777
2016-11-18T17:03:38.938Z,98772
2016-11-18T17:05:38.935Z,98767
2016-11-18T17:07:39.034Z,98762
2016-11-18T17:09:39.031Z,98747
2016-11-18T17:11:39.658Z,98754
2016-11-18T17:13:39.241Z,98750
2016-11-18T17:15:39.276Z,98753
2016-11-18T17:17:39.333Z,98754
2016-11-18T17:19:37.952Z,98766
2016-11-18T17:21:39.375Z,98778
2016-11-18T17:23:39.443Z,98770
2016-11-18T17:25:39.513Z,98777
2016-11-18T17:27:39.562Z,98824
2016-11-18T17:29:39.576Z,98928
2016-11-18T17:31:38.291Z,98912
2016-11-18T17:33:39.699Z,98902
2016-11-18T17:35:39.759Z,98918
2016-11-18T17:37:38.480Z,98909
2016-11-18T17:39:38.478Z,98879
2016-11-18T17:41:39.919Z,98876
2016-11-18T17:43:38.599Z,98867
2016-11-18T17:45:38.694Z,98874
2016-11-18T17:47:38.716Z,98869
2016-11-18T17:49:40.115Z,98890
2016-11-18T17:51:40.138Z,98887
2016-11-18T17:53:39.514Z,98884
2016-11-18T17:55:39.043Z,98888
2016-11-18T17:57:39.046Z,98897
2016-11-18T17:59:40.422Z,98897
2016-11-18T18:01:39.173Z,98910
2016-11-18T18:03:40.576Z,98913
2016-11-18T18:05:40.608Z,98904
2016-11-18T18:07:40.775Z,98898
2016-11-18T18:09:39.338Z,98907
2016-11-18T18:11:39.432Z,98898
2016-11-18T18:13:41.428Z,98902
2016-11-18T18:15:40.896Z,98886
2016-11-18T18:17:40.905Z,98907
2016-11-18T18:19:39.669Z,98921
2016-11-18T18:21:41.043Z,98930
2016-11-18T18:23:41.169Z,98928
2016-11-18T18:25:39.901Z,98938
2016-11-18T18:27:41.274Z,98938
2016-11-18T18:29:41.357Z,98943
2016-11-18T18:31:41.455Z,98936
2016-11-18T18:33:41.480Z,98938
2016-11-18T18:35:40.215Z,98949
2016-11-18T18:37:40.296Z,98951
2016-11-18T18:39:40.346Z,98941
2016-11-18T18:41:40.424Z,98963
2016-11-18T18:43:40.484Z,98996
2016-11-18T18:45:40.455Z,99006
2016-11-18T18:47:41.857Z,99010
2016-11-18T18:49:41.877Z,98998
2016-11-18T18:51:40.578Z,98983
2016-11-18T18:53:41.970Z,98985
2016-11-18T18:55:40.687Z,98984
2016-11-18T18:57:40.721Z,98995
2016-11-18T18:59:42.105Z,98993
2016-11-18T19:01:40.924Z,98990
2016-11-18T19:03:40.980Z,99009
2016-11-18T19:05:40.976Z,98999
2016-11-18T19:07:42.428Z,99004
2016-11-18T19:09:42.461Z,99002
2016-11-18T19:11:42.555Z,99010
2016-11-18T19:13:41.313Z,99008
2016-11-18T19:15:41.384Z,98994
2016-11-18T19:17:42.803Z,99004
2016-11-18T19:19:41.569Z,99002
2016-11-18T19:21:41.614Z,99008
2016-11-18T19:23:41.679Z,99014
2016-11-18T19:25:41.691Z,99015
2016-11-18T19:27:41.710Z,99014
2016-11-18T19:29:41.771Z,99018
2016-11-18T19:31:43.170Z,99015
2016-11-18T19:33:41.868Z,99019
2016-11-18T19:35:41.861Z,99017
2016-11-18T19:37:43.324Z,99013
2016-11-18T19:39:42.113Z,99021
2016-11-18T19:41:42.063Z,99014
2016-11-18T19:43:42.193Z,99024
2016-11-18T19:45:43.608Z,99034
2016-11-18T19:47:42.274Z,99029
2016-11-18T19:49:42.290Z,99031
2016-11-18T19:51:43.660Z,99025
2016-11-18T19:53:42.404Z,99038
2016-11-18T19:55:43.834Z,99038
2016-11-18T19:57:42.556Z,99039
2016-11-18T19:59:43.903Z,99039
2016-11-18T20:01:44.004Z,99047
2016-11-18T20:03:44.003Z,99061
2016-11-18T20:05:42.795Z,99046
2016-11-18T20:07:44.168Z,99058
2016-11-18T20:09:42.822Z,99048
2016-11-18T20:11:42.894Z,99054
2016-11-18T20:13:42.942Z,99064
2016-11-18T20:15:42.888Z,99067
2016-11-18T20:17:44.389Z,99072
2016-11-18T20:19:44.470Z,99083
2016-11-18T20:21:43.197Z,99083
2016-11-18T20:23:44.512Z,99091
2016-11-18T20:25:44.650Z,99108
2016-11-18T20:27:44.705Z,99126
2016-11-18T20:29:43.374Z,99121
2016-11-18T20:31:44.793Z,99126
2016-11-18T20:33:44.796Z,99113
2016-11-18T20:35:44.926Z,99120
2016-11-18T20:37:43.674Z,99117
2016-11-18T20:39:45.050Z,99117
2016-11-18T20:41:43.717Z,99120
2016-11-18T20:43:45.206Z,99122
2016-11-18T20:45:45.240Z,99130
2016-11-18T20:47:45.375Z,99127
2016-11-18T20:49:44.088Z,99122
2016-11-18T20:51:44.118Z,99142
2016-11-18T20:53:45.546Z,99148
2016-11-18T20:55:45.643Z,99161
2016-11-18T20:57:45.723Z,99165
2016-11-18T20:59:45.734Z,99163
2016-11-18T21:01:44.441Z,99160
2016-11-18T21:03:44.523Z,99157
2016-11-18T21:05:44.522Z,99163
2016-11-18T21:07:45.974Z,99165
2016-11-18T21:09:46.036Z,99166
2016-11-18T21:11:44.785Z,99167
2016-11-18T21:13:46.131Z,99163
2016-11-18T21:15:45.518Z,99174
2016-11-18T21:17:44.918Z,99176
2016-11-18T21:19:45.001Z,99174
2016-11-18T21:21:45.046Z,99182
2016-11-18T21:23:46.401Z,99182
2016-11-18T21:25:45.143Z,99178
2016-11-18T21:27:46.544Z,99185
2016-11-18T21:29:46.548Z,99190
2016-11-18T21:31:45.315Z,99185
2016-11-18T21:33:46.653Z,99189
2016-11-18T21:35:45.325Z,99190
2016-11-18T21:37:45.389Z,99189
2016-11-18T21:39:46.718Z,99187
2016-11-18T21:41:46.772Z,99187
2016-11-18T21:43:46.936Z,99187
2016-11-18T21:45:46.883Z,99188
2016-11-18T21:47:46.926Z,99197
2016-11-18T21:49:45.648Z,99198
2016-11-18T21:51:47.049Z,99203
2016-11-18T21:53:45.881Z,99203
2016-11-18T21:55:45.876Z,99204
2016-11-18T21:57:45.930Z,99207
2016-11-18T21:59:47.267Z,99200
2016-11-18T22:01:47.372Z,99208
2016-11-18T22:03:45.967Z,99214
2016-11-18T22:05:47.420Z,99209
2016-11-18T22:07:47.526Z,99214
2016-11-18T22:09:47.523Z,99203
2016-11-18T22:11:46.134Z,99206
2016-11-18T22:13:47.555Z,99199
2016-11-18T22:15:47.597Z,99207
2016-11-18T22:17:46.199Z,99199
2016-11-18T22:19:47.596Z,99207
2016-11-18T22:21:46.234Z,99208
2016-11-18T22:23:47.696Z,99210
2016-11-18T22:25:47.767Z,99200
2016-11-18T22:27:46.421Z,99205
2016-11-18T22:29:46.441Z,99198
2016-11-18T22:31:46.492Z,99209
2016-11-18T22:33:46.469Z,99213
2016-11-18T22:35:47.892Z,99204
2016-11-18T22:37:47.963Z,99205
2016-11-18T22:39:47.954Z,99208
2016-11-18T22:41:48.052Z,99211
2016-11-18T22:43:48.121Z,99213
2016-11-18T22:45:46.793Z,99217
2016-11-18T22:47:48.172Z,99222
2016-11-18T22:49:48.195Z,99227
2016-11-18T22:51:48.210Z,99233
2016-11-18T22:53:46.867Z,99234
2016-11-18T22:55:46.982Z,99229
2016-11-18T22:57:47.055Z,99225
2016-11-18T22:59:48.450Z,99228
2016-11-18T23:01:47.168Z,99227
2016-11-18T23:03:48.615Z,99227
2016-11-18T23:05:47.375Z,99235
2016-11-18T23:07:47.438Z,99237
2016-11-18T23:09:47.437Z,99236
2016-11-18T23:11:47.476Z,99231
2016-11-18T23:13:48.964Z,99233
2016-11-18T23:15:48.959Z,99229
2016-11-18T23:17:47.716Z,99228
2016-11-18T23:19:47.790Z,99226
2016-11-18T23:21:47.823Z,99228
2016-11-18T23:23:49.226Z,99220
2016-11-18T23:25:47.937Z,99225
2016-11-18T23:27:49.329Z,99225
2016-11-18T23:29:49.386Z,99226
2016-11-18T23:31:48.168Z,99227
2016-11-18T23:33:49.567Z,99226
2016-11-18T23:35:49.593Z,99227
2016-11-18T23:37:48.296Z,99223
2016-11-18T23:39:49.668Z,99225
2016-11-18T23:41:48.333Z,99225
2016-11-18T23:43:49.742Z,99226
2016-11-18T23:45:48.406Z,99225
2016-11-18T23:47:49.828Z,99222
2016-11-18T23:49:48.511Z,99240
2016-11-18T23:51:49.912Z,99237
2016-11-18T23:53:48.576Z,99236
2016-11-18T23:55:50.045Z,99240
2016-11-18T23:57:50.011Z,99235
2016-11-18T23:59:50.069Z,99223
